Karmel — 9HA2896 — position and weather

sailwx.info

Track history (hours):
 
Tides and Currents Weather Stations Pressure Air Temp Water Temp Dewpoint Dewpoint Depression Visibility Wind Speed Wind Dir Waves Ship Positions

Karmel

Last reported at 2015-May-29 00:29 UTC. Time now 2015-May-30 18:35 UTC.
Position N 54°36' E 012°31'.

Length 90 m; draft 3.8 m.

Type: Cargo ship. MMSI: 256632000.

Date/timePositionNaut miles runAvg speedWind from/ knotsBaromVisibWave heightAir tempDewpointWater temp
2015-May-29 00:29N 54°36' E 012°31'1011.0
2015-May-28 23:33N 54°30' E 012°16'1010.5
2015-May-28 22:33N 54°21' E 012°08'1010.3
2015-May-28 21:33N 54°11' E 012°06'4 3.2
2015-May-28 20:25N 54°07' E 012°05'0 0.0
2015-May-28 19:28N 54°07' E 012°05'0 0.0
2015-May-28 18:28N 54°07' E 012°05'0 0.0
2015-May-28 17:31N 54°07' E 012°05'0 0.0
2015-May-28 16:28N 54°07' E 012°05'0 0.0
2015-May-28 15:31N 54°07' E 012°05'0 0.0
2015-May-28 14:28N 54°07' E 012°05'0 0.0
2015-May-28 13:22N 54°07' E 012°05'0 0.0
2015-May-28 11:31N 54°07' E 012°05'0 0.0
2015-May-28 09:31N 54°07' E 012°05'0 0.0
2015-May-28 08:31N 54°07' E 012°05'0 0.0
2015-May-28 07:28N 54°07' E 012°05'0 0.0
2015-May-28 06:31N 54°07' E 012°05'0 0.0
2015-May-28 01:28N 54°07' E 012°05'0 0.0
2015-May-28 00:31N 54°07' E 012°05'0 0.0
2015-May-27 23:20N 54°07' E 012°05'0 0.0
2015-May-27 22:31N 54°07' E 012°05'0 0.0
2015-May-27 21:13N 54°07' E 012°05'0 0.0
2015-May-27 20:23N 54°07' E 012°05'3 1.0
2015-May-27 17:30N 54°10' E 012°06'9 8.8
2015-May-27 16:30N 54°19' E 012°04'1010.3
2015-May-27 15:33N 54°28' E 012°10'79 9.6
2015-May-27 07:17N 55°08' E 014°08'910.0
2015-May-27 06:26N 55°15' E 014°18'1010.2
2015-May-27 05:28N 55°23' E 014°28'910.2
2015-May-27 04:33N 55°29' E 014°40'1110.3
2015-May-27 03:31N 55°34' E 014°57'1510.1
2015-May-27 02:05N 55°42' E 015°19'  
2015-May-20 16:34N 55°43' E 015°41'1211.2
2015-May-20 15:28N 55°37' E 015°22'1011.3
2015-May-20 14:33N 55°32' E 015°07'1111.2
2015-May-20 13:33N 55°27' E 014°49'1111.1
2015-May-20 12:33N 55°20' E 014°34'1111.2
2015-May-20 11:33N 55°11' E 014°22'4611.1
2015-May-20 07:22N 54°50' E 013°10'1011.5
2015-May-20 06:30N 54°47' E 012°53'2210.9
2015-May-20 04:30N 54°36' E 012°21'1310.4
2015-May-20 03:14N 54°24' E 012°10'710.5
2015-May-20 02:33N 54°24' E 011°57'1010.4
2015-May-20 01:33N 54°26' E 011°40'1010.3
2015-May-20 00:33N 54°31' E 011°24'10 9.9
2015-May-19 23:34N 54°35' E 011°09'1110.6
2015-May-19 22:33N 54°35' E 010°51'1110.9
2015-May-19 21:33N 54°33' E 010°32'1010.5
2015-May-19 20:33N 54°28' E 010°16'8 7.8
2015-May-19 19:33N 54°22' E 010°09'3 3.3
2015-May-19 18:33N 54°22' E 010°03'7 6.5
2015-May-19 17:33N 54°22' E 009°52'7 7.0
2015-May-19 16:32N 54°18' E 009°42'8 6.3
2015-May-19 15:13N 54°12' E 009°32'6 8.4
2015-May-19 14:29N 54°09' E 009°22'7 8.0
2015-May-19 13:33N 54°02' E 009°18'8 8.3
2015-May-19 12:33N 53°55' E 009°11'2 2.2
2015-May-19 11:33N 53°54' E 009°09'1 1.2
2015-May-19 10:33N 53°53' E 009°07'1111.4
2015-May-19 09:33N 53°50' E 008°48'1212.4
2015-May-19 08:33N 53°58' E 008°31'1311.8
2015-May-19 07:25N 53°60' E 008°09'1011.1
2015-May-19 06:33N 53°57' E 007°53'1010.2
2015-May-19 05:33N 53°55' E 007°36'10 9.7
2015-May-19 04:32N 53°53' E 007°20'  
Track history (hours):
 
Tides and Currents Weather Stations Pressure Air Temp Water Temp Dewpoint Dewpoint Depression Visibility Wind Speed Wind Dir Waves Ship Positions

Karmel

Last reported at 2015-May-29 00:29 UTC. Time now 2015-May-30 18:35 UTC.
Position N 54°36' E 012°31'.

Length 90 m; draft 3.8 m.

Type: Cargo ship. MMSI: 256632000.

Date/timePositionNaut miles runAvg speedWind from/ knotsBaromVisibWave heightAir tempDewpointWater temp
2015-May-29 00:29N 54°36' E 012°31'1011.0
2015-May-28 23:33N 54°30' E 012°16'1010.5
2015-May-28 22:33N 54°21' E 012°08'1010.3
2015-May-28 21:33N 54°11' E 012°06'4 3.2
2015-May-28 20:25N 54°07' E 012°05'0 0.0
2015-May-28 19:28N 54°07' E 012°05'0 0.0
2015-May-28 18:28N 54°07' E 012°05'0 0.0
2015-May-28 17:31N 54°07' E 012°05'0 0.0
2015-May-28 16:28N 54°07' E 012°05'0 0.0
2015-May-28 15:31N 54°07' E 012°05'0 0.0
2015-May-28 14:28N 54°07' E 012°05'0 0.0
2015-May-28 13:22N 54°07' E 012°05'0 0.0
2015-May-28 11:31N 54°07' E 012°05'0 0.0
2015-May-28 09:31N 54°07' E 012°05'0 0.0
2015-May-28 08:31N 54°07' E 012°05'0 0.0
2015-May-28 07:28N 54°07' E 012°05'0 0.0
2015-May-28 06:31N 54°07' E 012°05'0 0.0
2015-May-28 01:28N 54°07' E 012°05'0 0.0
2015-May-28 00:31N 54°07' E 012°05'0 0.0
2015-May-27 23:20N 54°07' E 012°05'0 0.0
2015-May-27 22:31N 54°07' E 012°05'0 0.0
2015-May-27 21:13N 54°07' E 012°05'0 0.0
2015-May-27 20:23N 54°07' E 012°05'3 1.0
2015-May-27 17:30N 54°10' E 012°06'9 8.8
2015-May-27 16:30N 54°19' E 012°04'1010.3
2015-May-27 15:33N 54°28' E 012°10'79 9.6
2015-May-27 07:17N 55°08' E 014°08'910.0
2015-May-27 06:26N 55°15' E 014°18'1010.2
2015-May-27 05:28N 55°23' E 014°28'910.2
2015-May-27 04:33N 55°29' E 014°40'1110.3
2015-May-27 03:31N 55°34' E 014°57'1510.1
2015-May-27 02:05N 55°42' E 015°19'  
2015-May-20 16:34N 55°43' E 015°41'1211.2
2015-May-20 15:28N 55°37' E 015°22'1011.3
2015-May-20 14:33N 55°32' E 015°07'1111.2
2015-May-20 13:33N 55°27' E 014°49'1111.1
2015-May-20 12:33N 55°20' E 014°34'1111.2
2015-May-20 11:33N 55°11' E 014°22'4611.1
2015-May-20 07:22N 54°50' E 013°10'1011.5
2015-May-20 06:30N 54°47' E 012°53'2210.9
2015-May-20 04:30N 54°36' E 012°21'1310.4
2015-May-20 03:14N 54°24' E 012°10'710.5
2015-May-20 02:33N 54°24' E 011°57'1010.4
2015-May-20 01:33N 54°26' E 011°40'1010.3
2015-May-20 00:33N 54°31' E 011°24'10 9.9
2015-May-19 23:34N 54°35' E 011°09'1110.6
2015-May-19 22:33N 54°35' E 010°51'1110.9
2015-May-19 21:33N 54°33' E 010°32'1010.5
2015-May-19 20:33N 54°28' E 010°16'8 7.8
2015-May-19 19:33N 54°22' E 010°09'3 3.3
2015-May-19 18:33N 54°22' E 010°03'7 6.5
2015-May-19 17:33N 54°22' E 009°52'7 7.0
2015-May-19 16:32N 54°18' E 009°42'8 6.3
2015-May-19 15:13N 54°12' E 009°32'6 8.4
2015-May-19 14:29N 54°09' E 009°22'7 8.0
2015-May-19 13:33N 54°02' E 009°18'8 8.3
2015-May-19 12:33N 53°55' E 009°11'2 2.2
2015-May-19 11:33N 53°54' E 009°09'1 1.2
2015-May-19 10:33N 53°53' E 009°07'1111.4
2015-May-19 09:33N 53°50' E 008°48'1212.4
2015-May-19 08:33N 53°58' E 008°31'1311.8
2015-May-19 07:25N 53°60' E 008°09'1011.1
2015-May-19 06:33N 53°57' E 007°53'1010.2
2015-May-19 05:33N 53°55' E 007°36'10 9.7
2015-May-19 04:32N 53°53' E 007°20'  

Dump ship's entire track history